Békásmegyer ÉK további részletek Békásmegyer ÉK


Békásmegyer DK további részletek Békásmegyer DK


Csillaghegy NY további részletek Csillaghegy NY


Előrejelzés - rövidtávú további részletek Előrejelzés - rövidtávú


Előrejelzés - hosszútávú további részletek Előrejelzés - hosszútávú


Eu hőtérkép - jelenlegi értékek további részletek Eu hőtérkép - jelenlegi értékek


Műhold további részletek Műhold


Radar további részletek Radar


EU min. hőtérkép további részletek EU min. hőtérkép


EU max. hőtérkép további részletek EU max. hőtérkép


Mo radar (forrás: met.hu) további részletek Mo radar (forrás: met.hu)


Villámtérkép további részletek blitzortung!


Csapadékradar további részletek rain snow radar



Közeli METAR jelentések

   
LHBP - Budapest
Távolság az állomástól: DK 24 km
Frissítve: Mar 3 2024 11:30 pm
Derült  
Derült  
   Szél: K 7.4 km/h
Szél: K 7.4 km/h
Hőmérséklet: 7°C
Szélhűtés: 6°C
Harmatpont: 4°C
Páratartalom: 81%
Légnyomás: 1008 hPa
Látótávolság: More than 10 km
Felhő fajták: Derült
LHBP 032230Z 10004KT CAVOK 07/04 Q1008 NOSIG
LHDC - Debrecen
Távolság az állomástól: K 192 km
Frissítve: Mar 3 2024 11:45 pm
Derült  
Derült  
   Szél: Szélcsend
Szél: Szélcsend
Hőmérséklet: 9°C
Harmatpont: 5°C
Páratartalom: 76%
Légnyomás: 1010 hPa
Látótávolság: More than 10 km
Felhő fajták: Derült
LHDC 032245Z AUTO 00000KT CAVOK 09/05 Q1010 NOSIG
LHKE - Kecskemét
Távolság az állomástól: DK 91 km
Frissítve: Mar 3 2024 11:45 pm
Derült  
Derült  
   Szél: DDK 11.1 km/h
Szél: DDK 11.1 km/h
Hőmérséklet: 8°C
Szélhűtés: 6°C
Harmatpont: 5°C
Páratartalom: 82%
Légnyomás: 1009 hPa
Látótávolság: More than 10 km
Felhő fajták: Derült
LHKE 032245Z 15006KT CAVOK 08/05 Q1009 NOSIG RMK BLU
LHPA - Pápa
Távolság az állomástól: NY 121 km
Frissítve: Mar 3 2024 11:45 pm
Derült  
Derült  
   Szél: DDK 14.8 km/h
Szél: DDK 14.8 km/h
Hőmérséklet: 9°C
Szélhűtés: 7°C
Harmatpont: 4°C
Páratartalom: 71%
Légnyomás: 1007 hPa
Látótávolság: More than 10 km
Felhő fajták: Derült
LHPA 032245Z 16008KT CAVOK 09/04 Q1007 NOSIG RMK BLU
LZSL - Sliac, Slovakia
Távolság az állomástól: É 116 km
Frissítve: Jun 9 2021 10:32 am
NOT Current
Kissé felhős  
Kissé felhős  
   Szél: DK 7.4 km/h
Szél: DK 7.4 km/h
Hőmérséklet: 25°C
Harmatpont: 11°C
Páratartalom: 42%
Légnyomás: 1017 hPa
Felhők: Kissé felhős
Látótávolság: More than 10 km
Felhő fajták: Kissé felhős 4000 ft
LZSL 090832Z 13004KT 9999 FEW040 25/11 Q1017
LOWW - Wien, Austria
Távolság az állomástól: NY 195 km
Frissítve: Mar 3 2024 11:50 pm
Derült  
Derült  
   Szél: D 24.1 km/h
Szél: D 24.1 km/h
Hőmérséklet: 8°C
Szélhűtés: 4°C
Harmatpont: 3°C
Páratartalom: 71%
Légnyomás: 1004 hPa
Látótávolság: More than 10 km
Felhő fajták: Derült
LOWW 032250Z 17013KT CAVOK 08/03 Q1004 NOSIG

Eredeti script  Saratoga-weather.org Adapted for the template by  Weerstation Leuven